Time;durP1;ratioP1;P1;durP2;ratioP2;P2;SDS_P1;SDS_P2;PMS_P1;PMS_P2;Temp;Humidity;BMP_temperature;BMP_pressure;BME280_temperature;BME280_humidity;BME280_pressure;Samples;Min_cycle;Max_cycle;Signal;HPM_P1;HPM_P2
2023/08/28 00:00:31;;;;;;;2.25;1.48;;;;;;;13.82;98.99;100689.91;5011528;28;20106;-59
2023/08/28 00:02:56;;;;;;;5.40;1.50;;;;;;;13.74;99.02;100684.03;5018767;28;20116;-60
2023/08/28 00:05:21;;;;;;;2.45;1.50;;;;;;;13.63;99.83;100692.06;5017759;28;21088;-60
2023/08/28 00:07:47;;;;;;;3.28;1.30;;;;;;;13.57;100.00;100687.84;5008406;28;20494;-60
2023/08/28 00:10:12;;;;;;;1.65;1.40;;;;;;;13.53;100.00;100688.78;5014942;28;20128;-60
2023/08/28 00:12:40;;;;;;;3.80;1.80;;;;;;;13.44;100.00;100688.97;5014364;28;20034;-60
2023/08/28 00:15:09;;;;;;;2.38;1.75;;;;;;;13.41;100.00;100685.63;5012984;28;20140;-60
2023/08/28 00:17:36;;;;;;;3.35;1.35;;;;;;;13.40;100.00;100692.56;5008321;28;20033;-60
2023/08/28 00:20:03;;;;;;;2.70;1.70;;;;;;;13.40;100.00;100694.28;5008929;28;20033;-59
2023/08/28 00:22:28;;;;;;;2.55;1.88;;;;;;;13.42;100.00;100690.78;5016248;28;20709;-60
2023/08/28 00:24:54;;;;;;;2.25;1.45;;;;;;;13.40;100.00;100695.16;5008600;28;20025;-60
2023/08/28 00:27:19;;;;;;;2.97;1.70;;;;;;;13.38;100.00;100689.16;5010259;28;20640;-60
2023/08/28 00:29:44;;;;;;;2.95;1.45;;;;;;;13.34;100.00;100687.50;5006747;28;20075;-60
2023/08/28 00:32:10;;;;;;;2.80;1.63;;;;;;;13.33;100.00;100685.78;5018089;28;20037;-60
2023/08/28 00:34:35;;;;;;;2.80;1.42;;;;;;;13.34;100.00;100687.50;5025370;28;20549;-59
2023/08/28 00:37:00;;;;;;;2.13;1.48;;;;;;;13.36;100.00;100685.69;5010825;28;20038;-60
2023/08/28 00:39:27;;;;;;;3.83;1.50;;;;;;;13.39;100.00;100682.19;5008592;28;20042;-60
2023/08/28 00:41:53;;;;;;;5.03;1.50;;;;;;;13.39;100.00;100690.84;5007418;28;20041;-60
2023/08/28 00:44:18;;;;;;;2.65;1.38;;;;;;;13.41;100.00;100686.50;5012714;28;20033;-60
2023/08/28 00:46:44;;;;;;;3.55;1.15;;;;;;;13.44;100.00;100695.94;5006858;28;20422;-59
2023/08/28 00:49:10;;;;;;;2.55;1.10;;;;;;;13.46;100.00;100695.03;5011188;28;20060;-60
2023/08/28 00:51:36;;;;;;;2.22;1.25;;;;;;;13.47;100.00;100691.53;5012884;28;20124;-59
2023/08/28 00:54:03;;;;;;;1.35;1.00;;;;;;;13.47;100.00;100695.88;5018116;28;20037;-59
2023/08/28 00:56:29;;;;;;;3.00;1.30;;;;;;;13.48;100.00;100692.38;5016405;28;20061;-60
2023/08/28 00:58:55;;;;;;;2.17;1.10;;;;;;;13.47;100.00;100683.72;5014457;28;20140;-60
2023/08/28 01:01:20;;;;;;;1.95;1.30;;;;;;;13.48;100.00;100690.66;5014737;28;20045;-60
2023/08/28 01:03:45;;;;;;;2.60;1.40;;;;;;;13.48;100.00;100675.06;5009681;28;20087;-60
2023/08/28 01:06:45;;;;;;;2.20;1.40;;;;;;;13.47;100.00;100672.50;5013843;28;20494;-59
2023/08/28 01:09:34;;;;;;;1.92;1.20;;;;;;;13.46;100.00;100668.19;4994924;28;20069;-60
2023/08/28 01:12:10;;;;;;;3.20;1.30;;;;;;;13.46;100.00;100674.25;5017806;28;20087;-60
2023/08/28 01:14:56;;;;;;;2.10;1.50;;;;;;;13.45;100.00;100671.66;5021338;28;20045;-59
2023/08/28 01:17:23;;;;;;;3.40;1.55;;;;;;;13.45;100.00;100663.88;5000561;28;20034;-60
2023/08/28 01:19:50;;;;;;;1.23;1.13;;;;;;;13.44;100.00;100657.81;4995855;28;20042;-60
2023/08/28 01:22:41;;;;;;;3.63;1.70;;;;;;;13.40;100.00;100655.34;4995530;28;20041;-60
2023/08/28 01:25:10;;;;;;;1.20;1.05;;;;;;;13.37;100.00;100663.19;5000005;28;20053;-60
2023/08/28 01:27:40;;;;;;;1.30;1.00;;;;;;;13.33;100.00;100656.34;5011816;28;20025;-59
2023/08/28 01:30:16;;;;;;;2.25;1.33;;;;;;;13.30;100.00;100654.69;5012910;28;20064;-59
2023/08/28 01:32:43;;;;;;;2.25;1.40;;;;;;;13.28;100.00;100645.22;5013194;28;20049;-60
2023/08/28 01:35:12;;;;;;;2.90;1.65;;;;;;;13.26;100.00;100644.41;5000421;28;20042;-59
2023/08/28 01:37:49;;;;;;;2.20;1.42;;;;;;;13.23;100.00;100649.66;4997849;28;20466;-59
2023/08/28 01:40:17;;;;;;;2.92;1.60;;;;;;;13.21;100.00;100651.41;4999931;28;20034;-59
2023/08/28 01:42:46;;;;;;;1.98;1.30;;;;;;;13.17;100.00;100642.88;4995229;28;20134;-60
2023/08/28 01:45:14;;;;;;;3.10;1.60;;;;;;;13.13;100.00;100641.22;4998365;28;20108;-59
2023/08/28 01:47:40;;;;;;;2.85;1.50;;;;;;;13.13;100.00;100648.13;5003514;28;20038;-60
2023/08/28 01:50:05;;;;;;;1.70;1.40;;;;;;;13.13;100.00;100643.81;5004948;28;20078;-60
2023/08/28 01:52:31;;;;;;;1.52;1.20;;;;;;;13.11;100.00;100634.34;5009659;28;20132;-59
2023/08/28 01:54:56;;;;;;;2.13;1.35;;;;;;;13.10;100.00;100628.31;5007267;28;20060;-59
2023/08/28 01:57:22;;;;;;;3.08;1.33;;;;;;;13.08;100.00;100630.09;5016377;28;20033;-61
2023/08/28 01:59:47;;;;;;;3.75;1.45;;;;;;;13.05;100.00;100637.06;5013026;28;20041;-60
2023/08/28 02:02:12;;;;;;;1.83;1.25;;;;;;;13.00;100.00;100631.97;5021308;28;20525;-60
2023/08/28 02:04:38;;;;;;;2.85;1.50;;;;;;;12.95;100.00;100631.16;5003291;28;20033;-60
2023/08/28 02:07:03;;;;;;;1.70;1.30;;;;;;;12.84;100.00;100630.53;5006968;28;20041;-60
2023/08/28 02:09:28;;;;;;;2.03;1.48;;;;;;;12.76;100.00;100627.25;5010359;28;20051;-60
2023/08/28 02:11:54;;;;;;;5.40;1.88;;;;;;;12.66;100.00;100623.97;5011142;28;20026;-60
2023/08/28 02:14:19;;;;;;;1.98;1.48;;;;;;;12.60;100.00;100621.50;5018647;28;20038;-60
2023/08/28 02:16:44;;;;;;;2.20;1.60;;;;;;;12.55;100.00;100625.91;5010151;28;20774;-64
2023/08/28 02:19:10;;;;;;;2.75;1.85;;;;;;;12.52;100.00;100646.72;5016104;28;20149;-60
2023/08/28 02:21:35;;;;;;;3.88;1.70;;;;;;;12.49;100.00;100664.06;5027810;28;20040;-59
2023/08/28 02:24:03;;;;;;;4.50;1.63;;;;;;;12.46;100.00;100670.97;5027983;28;20057;-60
2023/08/28 02:26:29;;;;;;;3.65;1.75;;;;;;;12.45;100.00;100684.00;5013747;28;20048;-60
2023/08/28 02:28:54;;;;;;;2.60;1.70;;;;;;;12.46;100.00;100690.91;5012623;28;20715;-59
2023/08/28 02:31:20;;;;;;;6.30;2.20;;;;;;;12.51;100.00;100699.44;5012210;28;20491;-59
2023/08/28 02:33:45;;;;;;;4.55;2.20;;;;;;;12.53;100.00;100707.19;5020793;28;20044;-60
2023/08/28 02:36:11;;;;;;;2.90;2.05;;;;;;;12.55;100.00;100697.66;5011889;28;20030;-60
2023/08/28 02:38:36;;;;;;;3.60;2.03;;;;;;;12.55;100.00;100695.06;5011935;28;20041;-60
2023/08/28 02:41:06;;;;;;;3.20;2.08;;;;;;;12.55;100.00;100690.75;5014793;28;20106;-59
2023/08/28 02:43:32;;;;;;;1.85;1.70;;;;;;;12.56;100.00;100696.75;5023848;28;20525;-59
2023/08/28 02:45:57;;;;;;;2.65;2.05;;;;;;;12.53;100.00;100697.66;5023028;28;20046;-59
2023/08/28 02:48:23;;;;;;;3.50;2.38;;;;;;;12.53;100.00;100700.25;5007634;28;20041;-59
2023/08/28 02:50:49;;;;;;;2.35;2.00;;;;;;;12.52;100.00;100698.56;5012432;28;20087;-60
2023/08/28 02:53:14;;;;;;;3.42;2.15;;;;;;;12.56;100.00;100696.75;5014411;28;20040;-59
2023/08/28 02:55:41;;;;;;;8.80;2.22;;;;;;;12.56;100.00;100691.56;5009835;28;20123;-60
2023/08/28 02:58:07;;;;;;;3.55;1.80;;;;;;;12.58;100.00;100690.69;5015574;28;20490;-60
2023/08/28 03:00:34;;;;;;;7.45;2.28;;;;;;;12.62;100.00;100689.72;5019707;28;20033;-59
2023/08/28 03:03:00;;;;;;;2.83;1.77;;;;;;;12.64;100.00;100698.34;5006493;28;20037;-59
2023/08/28 03:05:26;;;;;;;2.67;1.83;;;;;;;12.70;100.00;100698.22;5016414;28;20041;-59
2023/08/28 03:07:51;;;;;;;3.47;2.17;;;;;;;12.77;100.00;100698.97;5005964;28;20042;-59
2023/08/28 03:10:17;;;;;;;1.95;1.50;;;;;;;12.83;100.00;100685.88;5011886;28;20098;-59
2023/08/28 03:12:42;;;;;;;3.97;1.60;;;;;;;12.86;100.00;100676.31;5011931;28;20125;-59
2023/08/28 03:15:08;;;;;;;2.30;1.58;;;;;;;12.88;100.00;100674.53;5016046;28;20142;-59
2023/08/28 03:17:33;;;;;;;2.25;1.60;;;;;;;12.89;100.00;100673.66;5017385;28;20110;-59
2023/08/28 03:19:59;;;;;;;1.83;1.60;;;;;;;12.89;100.00;100673.66;5005500;28;20069;-59
2023/08/28 03:22:24;;;;;;;2.60;1.90;;;;;;;12.89;100.00;100670.19;5009400;28;20422;-59
2023/08/28 03:24:52;;;;;;;2.25;2.05;;;;;;;12.87;100.00;100666.78;5014870;28;20103;-59
2023/08/28 03:27:18;;;;;;;4.70;2.00;;;;;;;12.84;100.00;100664.25;5005321;28;20084;-59
2023/08/28 03:29:43;;;;;;;2.60;1.80;;;;;;;12.80;100.00;100668.66;5018909;28;20046;-59
2023/08/28 03:32:08;;;;;;;2.03;1.42;;;;;;;12.78;100.00;100664.38;5012999;28;20095;-59
2023/08/28 03:34:33;;;;;;;3.30;1.60;;;;;;;12.79;100.00;100668.69;5007569;28;20050;-59
2023/08/28 03:36:59;;;;;;;2.53;2.00;;;;;;;12.75;100.00;100673.06;5003641;28;20076;-59
2023/08/28 03:39:24;;;;;;;3.70;2.13;;;;;;;12.67;100.00;100674.94;5019179;28;20060;-59
2023/08/28 03:41:49;;;;;;;2.58;2.25;;;;;;;12.60;100.00;100686.31;5019396;28;20040;-60
2023/08/28 03:44:15;;;;;;;5.13;2.30;;;;;;;12.57;100.00;100686.38;5012483;28;20059;-59
2023/08/28 03:46:40;;;;;;;4.53;2.30;;;;;;;12.57;100.00;100686.38;5005524;28;20042;-59
2023/08/28 03:49:07;;;;;;;6.50;2.45;;;;;;;12.61;100.00;100682.84;5022018;28;20045;-59
2023/08/28 03:51:32;;;;;;;2.40;2.05;;;;;;;12.64;100.00;100685.38;5003988;28;20073;-59
2023/08/28 03:53:57;;;;;;;3.42;2.25;;;;;;;12.67;100.00;100674.94;5013036;28;20021;-59
2023/08/28 03:56:23;;;;;;;3.55;1.85;;;;;;;12.75;100.00;100680.00;5006844;28;20207;-59
2023/08/28 03:58:49;;;;;;;5.30;2.55;;;;;;;12.78;100.00;100678.19;5012197;28;20034;-59
2023/08/28 04:01:14;;;;;;;4.38;2.13;;;;;;;12.83;100.00;100678.09;5006617;28;20036;-59
2023/08/28 04:03:40;;;;;;;4.60;1.58;;;;;;;12.87;100.00;100674.56;5009792;28;20033;-59
2023/08/28 04:06:05;;;;;;;2.65;1.40;;;;;;;12.93;100.00;100677.06;5008031;28;20071;-59
2023/08/28 04:08:30;;;;;;;2.58;1.48;;;;;;;12.97;100.00;100676.94;5007785;28;20057;-59
2023/08/28 04:10:58;;;;;;;4.28;1.40;;;;;;;13.02;100.00;100676.91;5021189;28;20068;-59
2023/08/28 04:13:24;;;;;;;2.50;1.55;;;;;;;13.06;100.00;100675.13;5015304;28;20084;-60
2023/08/28 04:15:49;;;;;;;3.20;2.10;;;;;;;13.09;100.00;100675.88;5011629;28;20418;-59
2023/08/28 04:18:14;;;;;;;3.38;2.28;;;;;;;13.11;100.00;100681.06;5014459;28;20038;-59
2023/08/28 04:20:40;;;;;;;5.50;1.80;;;;;;;13.16;100.00;100664.50;5013131;28;20046;-59
2023/08/28 04:23:05;;;;;;;3.78;1.77;;;;;;;13.22;100.00;100664.38;5013573;28;20052;-59
2023/08/28 04:25:30;;;;;;;4.40;2.13;;;;;;;13.24;100.00;100665.19;5007109;28;20510;-59
2023/08/28 04:27:56;;;;;;;2.67;1.90;;;;;;;13.21;99.84;100674.78;5016742;28;20026;-59
2023/08/28 04:30:21;;;;;;;4.45;2.58;;;;;;;13.13;99.87;100669.75;5015392;28;20452;-59
2023/08/28 04:32:47;;;;;;;6.50;2.88;;;;;;;13.05;100.00;100660.41;5015654;28;20041;-59
2023/08/28 04:35:12;;;;;;;4.15;2.60;;;;;;;12.99;100.00;100657.06;5013711;28;20502;-59
2023/08/28 04:37:38;;;;;;;4.13;2.25;;;;;;;12.97;100.00;100656.19;5007075;28;20052;-59
2023/08/28 04:40:04;;;;;;;4.00;2.50;;;;;;;12.89;100.00;100655.50;5022944;28;20550;-60
2023/08/28 04:42:29;;;;;;;4.60;2.63;;;;;;;12.75;100.00;100654.06;5006886;28;20116;-59
2023/08/28 04:44:55;;;;;;;3.47;2.38;;;;;;;12.67;100.00;100651.59;5022190;28;20128;-59
2023/08/28 04:47:21;;;;;;;4.63;2.83;;;;;;;12.63;100.00;100643.91;5016652;28;20095;-59
2023/08/28 04:49:46;;;;;;;2.97;2.30;;;;;;;12.59;100.00;100642.25;5012581;28;20054;-60
2023/08/28 04:52:12;;;;;;;6.22;2.75;;;;;;;12.58;100.00;100654.38;5015806;28;20034;-60
2023/08/28 04:54:37;;;;;;;4.88;3.00;;;;;;;12.57;100.00;100655.25;5014997;28;20743;-60
2023/08/28 04:57:03;;;;;;;4.40;2.70;;;;;;;12.58;100.00;100672.53;5012854;28;20038;-60
2023/08/28 04:59:28;;;;;;;6.88;2.78;;;;;;;12.59;100.00;100674.22;5017248;28;20144;-60
2023/08/28 05:01:54;;;;;;;6.75;3.42;;;;;;;12.64;100.00;100671.56;5014724;28;20041;-60
2023/08/28 05:04:19;;;;;;;3.78;2.75;;;;;;;12.68;100.00;100680.97;5019601;28;20569;-61
2023/08/28 05:06:44;;;;;;;5.72;3.22;;;;;;;12.66;100.00;100670.66;5008087;28;20144;-60
2023/08/28 05:09:10;;;;;;;3.67;2.90;;;;;;;12.70;100.00;100674.03;5020775;28;20110;-61
2023/08/28 05:11:36;;;;;;;3.38;2.53;;;;;;;12.74;100.00;100675.69;5015482;28;20554;-60
2023/08/28 05:14:01;;;;;;;3.38;2.83;;;;;;;12.77;100.00;100670.44;5009683;28;20137;-60
2023/08/28 05:16:26;;;;;;;3.90;2.90;;;;;;;12.79;100.00;100664.31;5013002;28;20038;-60
2023/08/28 05:18:52;;;;;;;4.72;3.10;;;;;;;12.82;100.00;100669.47;5014097;28;20037;-61
2023/08/28 05:21:17;;;;;;;4.93;2.60;;;;;;;12.84;100.00;100666.84;5013754;28;20367;-60
2023/08/28 05:23:42;;;;;;;4.10;3.08;;;;;;;12.85;100.00;100679.78;5009904;28;20481;-60
2023/08/28 05:26:08;;;;;;;6.05;3.10;;;;;;;12.88;100.00;100684.91;5013621;28;20056;-60
2023/08/28 05:28:37;;;;;;;5.70;3.60;;;;;;;12.81;100.00;100688.53;5009766;28;20069;-60
2023/08/28 05:31:03;;;;;;;9.70;3.20;;;;;;;12.80;100.00;100686.81;5012288;28;20510;-60
2023/08/28 05:33:30;;;;;;;4.88;3.22;;;;;;;12.81;100.00;100688.53;4999355;28;20076;-60
2023/08/28 05:35:55;;;;;;;5.22;2.60;;;;;;;12.84;100.00;100690.19;5010350;28;20033;-60
2023/08/28 05:38:21;;;;;;;3.28;2.70;;;;;;;12.88;100.00;100684.91;5009113;28;20030;-60
2023/08/28 05:40:46;;;;;;;4.72;3.40;;;;;;;12.94;100.00;100686.53;4998010;28;20049;-60
2023/08/28 05:43:12;;;;;;;7.63;3.75;;;;;;;13.00;100.00;100684.72;4996118;28;20034;-60
2023/08/28 05:45:38;;;;;;;5.38;3.42;;;;;;;12.97;100.00;100678.69;4998217;28;20160;-61
2023/08/28 05:48:04;;;;;;;7.55;4.05;;;;;;;12.98;100.00;100683.00;5013056;28;20467;-60
2023/08/28 05:50:29;;;;;;;6.18;3.65;;;;;;;13.02;100.00;100673.47;5009238;28;20049;-60
2023/08/28 05:52:55;;;;;;;4.90;3.50;;;;;;;13.05;100.00;100669.06;5021689;28;20449;-62
2023/08/28 05:55:21;;;;;;;7.10;3.25;;;;;;;13.11;100.00;100668.94;5011497;28;20387;-60
2023/08/28 05:57:46;;;;;;;6.32;4.00;;;;;;;13.16;100.00;100663.66;5015226;28;20771;-60
2023/08/28 06:00:14;;;;;;;5.57;3.30;;;;;;;13.22;100.00;100666.13;5015224;28;20077;-60
2023/08/28 06:02:40;;;;;;;4.75;3.60;;;;;;;13.23;100.00;100666.09;5009221;28;20041;-60
2023/08/28 06:05:06;;;;;;;4.07;3.50;;;;;;;13.12;100.00;100672.41;5006886;28;20034;-60
2023/08/28 06:07:31;;;;;;;6.10;3.30;;;;;;;13.14;100.00;100676.66;5009956;28;20150;-60
2023/08/28 06:09:57;;;;;;;7.78;3.60;;;;;;;13.20;100.00;100666.16;5019558;28;20549;-60
2023/08/28 06:12:22;;;;;;;4.15;3.67;;;;;;;13.26;100.00;100660.84;5010650;28;20042;-61
2023/08/28 06:14:48;;;;;;;5.93;3.03;;;;;;;13.33;100.00;100659.81;5007801;28;20152;-60
2023/08/28 06:17:13;;;;;;;5.25;3.00;;;;;;;13.41;100.00;100657.06;5005992;28;20041;-60
2023/08/28 06:19:39;;;;;;;4.35;3.13;;;;;;;13.50;100.00;100659.47;5008621;28;20534;-60
2023/08/28 06:22:05;;;;;;;6.88;3.55;;;;;;;13.59;100.00;100648.88;5006508;28;20495;-60
2023/08/28 06:24:31;;;;;;;6.75;4.22;;;;;;;13.66;100.00;100647.81;5012368;28;20033;-60
2023/08/28 06:26:57;;;;;;;4.63;4.13;;;;;;;13.70;100.00;100652.06;5006858;28;20033;-60
2023/08/28 06:29:22;;;;;;;5.63;3.92;;;;;;;13.81;100.00;100649.22;5007961;28;20057;-60
2023/08/28 06:31:47;;;;;;;7.72;4.30;;;;;;;13.91;100.00;100654.19;5008824;28;20048;-60
2023/08/28 06:34:14;;;;;;;4.75;3.55;;;;;;;14.04;100.00;100660.78;5006230;28;20057;-60
2023/08/28 06:36:40;;;;;;;4.80;2.42;;;;;;;14.11;100.00;100661.47;5020163;28;20045;-60
2023/08/28 06:39:06;;;;;;;2.63;2.42;;;;;;;14.22;98.37;100656.03;4994682;28;20037;-60
2023/08/28 06:41:31;;;;;;;2.72;1.90;;;;;;;14.29;95.59;100665.38;5011727;28;20121;-60
2023/08/28 06:43:56;;;;;;;2.63;1.90;;;;;;;14.39;94.38;100665.16;5010524;28;20053;-60
2023/08/28 06:46:22;;;;;;;3.13;1.88;;;;;;;14.47;94.14;100663.19;5014582;28;20128;-60
2023/08/28 06:48:48;;;;;;;2.58;2.10;;;;;;;14.53;93.59;100665.66;5018324;28;20050;-60
2023/08/28 06:51:13;;;;;;;2.38;1.67;;;;;;;14.59;92.67;100665.47;5015570;28;20121;-60
2023/08/28 06:53:39;;;;;;;4.95;1.67;;;;;;;14.65;91.74;100670.53;5010822;28;20102;-60
2023/08/28 06:56:05;;;;;;;4.47;2.15;;;;;;;14.73;90.97;100675.50;5007178;28;20052;-60
2023/08/28 06:58:31;;;;;;;2.45;2.03;;;;;;;14.80;90.26;100674.47;5010262;28;20037;-60
2023/08/28 07:00:57;;;;;;;3.55;1.77;;;;;;;14.90;89.67;100678.50;5008613;28;20029;-60
2023/08/28 07:03:22;;;;;;;4.05;2.17;;;;;;;15.02;88.95;100672.09;5011157;28;20025;-60
2023/08/28 07:05:48;;;;;;;3.33;1.73;;;;;;;15.11;88.72;100661.44;5007132;28;20076;-60
2023/08/28 07:08:13;;;;;;;1.85;1.33;;;;;;;15.25;88.28;100664.53;5009785;28;20049;-60
2023/08/28 07:10:38;;;;;;;3.05;1.77;;;;;;;15.38;87.44;100667.59;5010039;28;20069;-60
2023/08/28 07:13:04;;;;;;;4.60;2.15;;;;;;;15.35;85.21;100662.47;5012227;28;20045;-60
2023/08/28 07:15:29;;;;;;;4.22;3.10;;;;;;;15.45;87.43;100671.72;5016931;28;20038;-60
2023/08/28 07:17:55;;;;;;;3.08;2.20;;;;;;;15.56;87.20;100673.13;5019422;28;20022;-60
2023/08/28 07:20:22;;;;;;;3.90;2.10;;;;;;;15.69;86.36;100681.47;5015527;28;20045;-60
2023/08/28 07:22:48;;;;;;;5.75;2.47;;;;;;;15.71;85.52;100669.22;5007656;28;20069;-60
2023/08/28 07:25:15;;;;;;;5.28;2.88;;;;;;;15.74;84.96;100677.81;5011307;28;20128;-60
2023/08/28 07:27:40;;;;;;;6.50;3.25;;;;;;;15.79;86.63;100682.03;5003031;28;20514;-60
2023/08/28 07:30:06;;;;;;;3.45;2.30;;;;;;;15.84;85.59;100682.72;5011064;28;20061;-60
2023/08/28 07:32:33;;;;;;;4.72;2.72;;;;;;;15.86;85.27;100667.88;5008483;28;20075;-60
2023/08/28 07:35:01;;;;;;;6.75;3.55;;;;;;;15.81;87.25;100683.69;5008676;28;20045;-60
2023/08/28 07:37:30;;;;;;;7.60;4.10;;;;;;;15.80;88.18;100686.31;5010430;28;20045;-60
2023/08/28 07:39:55;;;;;;;6.50;3.55;;;;;;;15.88;88.40;100681.75;5014547;28;20036;-60
2023/08/28 07:42:21;;;;;;;5.50;3.25;;;;;;;15.90;86.35;100669.50;5010668;28;20033;-60
2023/08/28 07:44:47;;;;;;;5.43;2.40;;;;;;;15.97;85.24;100666.66;5011343;28;20598;-60
2023/08/28 07:47:13;;;;;;;4.32;2.17;;;;;;;16.03;84.76;100670.81;5010971;28;20060;-60
2023/08/28 07:49:39;;;;;;;3.28;1.90;;;;;;;16.11;84.06;100669.69;5009278;28;20731;-60
2023/08/28 07:52:05;;;;;;;3.88;2.20;;;;;;;16.22;83.73;100671.94;5014751;28;20049;-60
2023/08/28 07:54:30;;;;;;;3.53;2.00;;;;;;;16.38;83.92;100683.56;5015904;28;20426;-60
2023/08/28 07:56:56;;;;;;;3.63;2.35;;;;;;;16.51;83.31;100677.03;5012412;28;20033;-60
2023/08/28 07:59:21;;;;;;;3.00;1.75;;;;;;;16.63;82.79;100668.78;5011087;28;20124;-60
2023/08/28 08:01:46;;;;;;;4.38;2.40;;;;;;;16.74;81.85;100678.88;5011689;28;20056;-60
2023/08/28 08:04:12;;;;;;;7.38;3.45;;;;;;;16.69;80.48;100662.50;5017209;28;21088;-60
2023/08/28 08:06:38;;;;;;;3.53;2.40;;;;;;;16.74;80.67;100674.47;5002481;28;20125;-60
2023/08/28 08:09:03;;;;;;;6.53;2.78;;;;;;;16.89;80.26;100672.28;5016778;28;20466;-60
2023/08/28 08:11:29;;;;;;;6.65;2.63;;;;;;;16.96;80.36;100673.75;5018507;28;20041;-60
2023/08/28 08:13:54;;;;;;;5.55;2.42;;;;;;;17.05;80.05;100679.50;5021835;28;20056;-61
2023/08/28 08:16:19;;;;;;;6.85;3.25;;;;;;;17.13;79.80;100672.22;5009365;28;20989;-60
2023/08/28 08:18:45;;;;;;;3.70;2.17;;;;;;;17.19;79.12;100672.00;5012492;28;20061;-60
2023/08/28 08:21:10;;;;;;;5.70;2.33;;;;;;;17.30;78.41;100659.41;5016198;28;20033;-60
2023/08/28 08:23:35;;;;;;;6.38;2.60;;;;;;;17.37;78.37;100666.09;5011122;28;20037;-60
2023/08/28 08:26:01;;;;;;;7.03;3.38;;;;;;;17.45;77.59;100649.28;5013657;28;20038;-60
2023/08/28 08:28:26;;;;;;;5.63;3.08;;;;;;;17.53;77.29;100648.06;5011566;28;20033;-60
2023/08/28 08:30:53;;;;;;;7.45;2.55;;;;;;;17.73;77.41;100642.91;5015928;28;20065;-60
2023/08/28 08:33:18;;;;;;;5.20;3.65;;;;;;;17.85;76.47;100639.00;5021423;28;20029;-60
2023/08/28 08:35:43;;;;;;;8.60;3.78;;;;;;;17.92;76.32;100637.84;5013921;28;20042;-60
2023/08/28 08:38:09;;;;;;;7.35;3.28;;;;;;;17.97;76.51;100647.19;5013503;28;20683;-60
2023/08/28 08:40:36;;;;;;;6.72;3.67;;;;;;;18.08;76.06;100649.38;5002535;28;20796;-60
2023/08/28 08:43:02;;;;;;;6.13;3.38;;;;;;;18.14;75.83;100648.25;5009865;28;20034;-60
2023/08/28 08:45:29;;;;;;;7.00;4.43;;;;;;;18.16;75.54;100647.31;5013631;28;20029;-60
2023/08/28 08:47:57;;;;;;;7.95;3.85;;;;;;;18.19;75.90;100649.81;5010443;28;20030;-60
2023/08/28 08:50:24;;;;;;;10.07;5.28;;;;;;;18.20;75.56;100648.00;5008279;28;20137;-60
2023/08/28 08:52:49;;;;;;;8.77;5.30;;;;;;;18.20;75.33;100646.25;5005883;28;20111;-60
2023/08/28 08:55:34;;;;;;;6.20;4.38;;;;;;;18.29;76.35;100661.56;5009285;28;20502;-60
2023/08/28 08:58:04;;;;;;;8.48;5.55;;;;;;;18.25;75.35;100636.47;5018230;28;20047;-60
2023/08/28 09:00:29;;;;;;;8.82;5.15;;;;;;;18.28;76.19;100646.81;5006116;28;20618;-60
2023/08/28 09:02:56;;;;;;;7.55;4.35;;;;;;;18.40;75.85;100637.56;5009440;28;20541;-60
2023/08/28 09:05:22;;;;;;;10.02;5.18;;;;;;;18.43;74.93;100626.97;5011737;28;20572;-60
2023/08/28 09:07:48;;;;;;;6.32;4.82;;;;;;;18.51;75.13;100624.88;5004490;28;20133;-60
2023/08/28 09:10:14;;;;;;;10.23;5.50;;;;;;;18.58;74.78;100628.09;5003977;28;20698;-60
2023/08/28 09:12:42;;;;;;;6.80;4.50;;;;;;;18.59;74.26;100627.16;5010460;28;20041;-60
2023/08/28 09:15:10;;;;;;;7.38;4.95;;;;;;;18.67;74.25;100619.84;5011648;28;20041;-60
2023/08/28 09:17:40;;;;;;;7.28;5.18;;;;;;;18.82;73.41;100608.69;5011829;28;20037;-60
2023/08/28 09:20:16;;;;;;;8.30;4.65;;;;;;;19.00;73.41;100605.25;5004810;28;20537;-60
2023/08/28 09:22:53;;;;;;;9.65;5.57;;;;;;;19.11;73.27;100596.91;5019897;28;20699;-60
2023/08/28 09:25:20;;;;;;;13.68;8.70;;;;;;;19.05;72.07;100585.81;5001508;28;20034;-60
2023/08/28 09:27:48;;;;;;;14.55;8.65;;;;;;;18.88;71.96;100590.94;5007470;28;20037;-60
2023/08/28 09:30:26;;;;;;;11.32;7.97;;;;;;;18.76;74.34;100616.81;5018660;28;20026;-60
2023/08/28 09:32:51;;;;;;;10.95;7.95;;;;;;;18.75;73.51;100610.72;5005696;28;20046;-60
2023/08/28 09:35:20;;;;;;;14.43;7.72;;;;;;;18.72;73.56;100623.94;5014816;28;20029;-60
2023/08/28 09:37:55;;;;;;;11.60;8.00;;;;;;;18.85;73.54;100621.69;5004651;28;20046;-61
2023/08/28 09:40:29;;;;;;;13.32;6.82;;;;;;;18.83;72.50;100607.75;5007878;28;20884;-61
2023/08/28 09:42:55;;;;;;;9.05;7.60;;;;;;;18.86;73.29;100612.88;5008180;28;20394;-60
2023/08/28 09:45:20;;;;;;;11.40;7.50;;;;;;;18.79;72.76;100608.81;5016288;28;20029;-60
2023/08/28 09:47:51;;;;;;;11.88;6.78;;;;;;;19.00;72.96;100608.72;5007144;28;20149;-60
2023/08/28 09:50:22;;;;;;;13.85;7.88;;;;;;;19.13;74.13;100623.88;5009159;28;20088;-60
2023/08/28 09:52:48;;;;;;;13.00;8.82;;;;;;;18.93;72.51;100602.06;5013280;28;20045;-60
2023/08/28 09:55:13;;;;;;;12.23;7.38;;;;;;;19.15;72.40;100593.22;5013939;28;20067;-60
2023/08/28 09:57:42;;;;;;;11.88;8.68;;;;;;;19.13;72.29;100595.06;5016610;28;20128;-60
2023/08/28 10:00:08;;;;;;;13.70;9.05;;;;;;;19.01;72.72;100599.94;5012271;28;20179;-60
2023/08/28 10:02:34;;;;;;;13.45;10.40;;;;;;;19.09;72.15;100586.50;5008819;28;20657;-60
2023/08/28 10:05:02;;;;;;;11.45;9.05;;;;;;;19.00;73.40;100608.72;5013926;28;20546;-60
2023/08/28 10:07:28;;;;;;;12.88;9.45;;;;;;;19.11;72.50;100595.16;5010558;28;20041;-60
2023/08/28 10:09:59;;;;;;;12.98;8.82;;;;;;;19.12;72.22;100583.72;5022376;28;20136;-61
2023/08/28 10:12:26;;;;;;;12.40;7.97;;;;;;;19.00;73.97;100610.47;5007952;28;20280;-60
2023/08/28 10:14:53;;;;;;;11.13;8.07;;;;;;;18.91;73.99;100617.00;5018354;28;20033;-60
2023/08/28 10:17:19;;;;;;;12.35;7.30;;;;;;;18.82;75.23;100640.13;5015872;28;20128;-63
2023/08/28 10:19:58;;;;;;;10.15;7.35;;;;;;;18.83;73.98;100623.47;5011248;28;20038;-60
2023/08/28 10:22:25;;;;;;;12.40;7.45;;;;;;;18.93;74.35;100632.66;5012683;28;20042;-68
2023/08/28 10:24:52;;;;;;;12.20;7.50;;;;;;;19.04;74.72;100636.50;5021312;28;20025;-68
2023/08/28 10:27:20;;;;;;;9.00;5.88;;;;;;;19.49;74.06;100627.44;5027582;28;20025;-68
2023/08/28 10:29:46;;;;;;;12.27;7.18;;;;;;;19.43;74.15;100638.19;5019666;28;20041;-68
2023/08/28 10:32:13;;;;;;;11.18;7.57;;;;;;;19.58;73.03;100613.88;5021636;28;20067;-67
2023/08/28 10:34:42;;;;;;;10.80;8.13;;;;;;;19.73;72.64;100614.91;5007680;28;20132;-68
2023/08/28 10:37:11;;;;;;;8.40;5.72;;;;;;;20.09;71.24;100586.91;5003912;28;20048;-67
2023/08/28 10:39:42;;;;;;;11.73;7.20;;;;;;;20.04;70.87;100587.13;5010500;28;20026;-68
2023/08/28 10:42:15;;;;;;;9.23;6.75;;;;;;;20.07;70.27;100584.34;5021681;28;20040;-68
2023/08/28 10:44:41;;;;;;;8.20;5.40;;;;;;;20.20;71.17;100600.34;5024354;28;20041;-68
2023/08/28 10:47:07;;;;;;;6.97;5.05;;;;;;;20.47;69.96;100590.22;5005054;28;20080;-68
2023/08/28 10:49:34;;;;;;;9.65;5.88;;;;;;;20.55;68.48;100561.75;5012904;28;20045;-68
2023/08/28 10:52:03;;;;;;;9.55;5.40;;;;;;;20.52;68.81;100564.53;5016906;28;20407;-68
2023/08/28 10:54:38;;;;;;;10.40;5.60;;;;;;;20.35;69.35;100583.81;5012962;28;20529;-67
2023/08/28 10:57:09;;;;;;;12.00;6.03;;;;;;;20.36;69.47;100585.53;5015007;28;20557;-68
2023/08/28 10:59:44;;;;;;;7.95;4.70;;;;;;;20.38;70.33;100591.53;5015426;28;20431;-68
2023/08/28 11:02:11;;;;;;;7.50;5.13;;;;;;;20.21;70.05;100598.56;5007331;28;20036;-67
2023/08/28 11:04:39;;;;;;;9.73;4.68;;;;;;;20.26;69.86;100594.78;5014561;28;20072;-68
2023/08/28 11:07:06;;;;;;;8.13;4.00;;;;;;;20.41;69.97;100593.16;5015451;28;20478;-68
2023/08/28 11:09:33;;;;;;;8.43;4.38;;;;;;;20.39;68.97;100576.63;5008510;28;20109;-68
2023/08/28 11:11:59;;;;;;;8.40;4.97;;;;;;;20.25;67.41;100551.06;5013666;28;20037;-68
2023/08/28 11:14:33;;;;;;;10.13;4.28;;;;;;;20.43;68.12;100565.03;5010021;28;20060;-68
2023/08/28 11:17:07;;;;;;;7.32;4.68;;;;;;;20.38;67.86;100567.91;5005031;28;20053;-67